createdAt,value
2018-01-02T00:00:01.213Z,99621.66
2018-01-02T00:02:28.618Z,99617.83
2018-01-02T00:04:56.050Z,99613.80
2018-01-02T00:07:23.454Z,99622.22
2018-01-02T00:09:50.860Z,99614.70
2018-01-02T00:12:18.342Z,99614.42
2018-01-02T00:14:45.746Z,99611.28
2018-01-02T00:17:13.151Z,99612.50
2018-01-02T00:19:40.602Z,99614.78
2018-01-02T00:22:08.006Z,99614.91
2018-01-02T00:24:35.419Z,99613.36
2018-01-02T00:27:02.861Z,99618.66
2018-01-02T00:29:30.260Z,99622.39
2018-01-02T00:31:57.667Z,99625.73
2018-01-02T00:34:25.083Z,99617.97
2018-01-02T00:36:52.499Z,99618.94
2018-01-02T00:39:20.048Z,99618.82
2018-01-02T00:41:47.474Z,99617.77
2018-01-02T00:44:14.973Z,99619.55
2018-01-02T00:46:42.428Z,99616.17
2018-01-02T00:49:09.858Z,99619.66
2018-01-02T00:51:37.263Z,99617.55
2018-01-02T00:54:04.701Z,99621.85
2018-01-02T00:56:32.160Z,99620.31
2018-01-02T00:58:59.563Z,99620.84
2018-01-02T01:01:26.960Z,99624.38
2018-01-02T01:03:54.381Z,99632.56
2018-01-02T01:06:21.811Z,99629.46
2018-01-02T01:08:49.214Z,99624.71
2018-01-02T01:11:16.624Z,99628.45
2018-01-02T01:13:44.038Z,99626.83
2018-01-02T01:16:11.442Z,99626.47
2018-01-02T01:18:38.879Z,99628.71
2018-01-02T01:21:06.327Z,99619.77
2018-01-02T01:23:33.729Z,99622.20
2018-01-02T01:26:01.166Z,99619.52
2018-01-02T01:28:28.573Z,99612.41
2018-01-02T01:30:56.040Z,99612.00
2018-01-02T01:33:23.498Z,99611.63
2018-01-02T01:35:50.959Z,99613.38
2018-01-02T01:38:18.413Z,99604.44
2018-01-02T01:40:45.867Z,99608.41
2018-01-02T01:43:13.323Z,99603.78
2018-01-02T01:45:40.727Z,99600.78
2018-01-02T01:48:08.148Z,99602.97
2018-01-02T01:50:35.551Z,99598.42
2018-01-02T01:53:03.791Z,99597.39
2018-01-02T01:55:31.326Z,99596.27
2018-01-02T01:57:58.723Z,99583.16
2018-01-02T02:00:26.119Z,99591.02
2018-01-02T02:02:53.544Z,99587.80
2018-01-02T02:05:21.055Z,99588.41
2018-01-02T02:07:48.471Z,99588.00
2018-01-02T02:10:15.878Z,99590.08
2018-01-02T02:12:43.322Z,99584.02
2018-01-02T02:15:10.727Z,99588.02
2018-01-02T02:17:38.138Z,99585.69
2018-01-02T02:20:05.701Z,99587.63
2018-01-02T02:22:33.099Z,99581.23
2018-01-02T02:25:00.502Z,99575.02
2018-01-02T02:27:27.972Z,99576.56
2018-01-02T02:29:55.359Z,99571.52
2018-01-02T02:32:22.758Z,99565.09
2018-01-02T02:34:50.198Z,99565.87
2018-01-02T02:37:17.692Z,99563.36
2018-01-02T02:39:45.094Z,99561.29
2018-01-02T02:42:12.521Z,99560.15
2018-01-02T02:44:39.962Z,99552.19
2018-01-02T02:47:07.388Z,99542.35
2018-01-02T02:49:34.783Z,99542.03
2018-01-02T02:52:02.186Z,99541.01
2018-01-02T02:54:29.590Z,99532.64
2018-01-02T02:56:56.999Z,99531.53
2018-01-02T02:59:24.406Z,99534.83
2018-01-02T03:01:51.816Z,99526.01
2018-01-02T03:04:19.366Z,99527.59
2018-01-02T03:06:46.802Z,99525.72
2018-01-02T03:09:14.208Z,99525.31
2018-01-02T03:11:41.606Z,99528.11
2018-01-02T03:14:09.017Z,99533.23
2018-01-02T03:16:36.439Z,99524.00
2018-01-02T03:19:03.840Z,99526.20
2018-01-02T03:21:31.239Z,99522.00
2018-01-02T03:23:58.666Z,99524.77
2018-01-02T03:26:26.074Z,99530.53
2018-01-02T03:28:53.481Z,99526.69
2018-01-02T03:31:20.930Z,99528.52
2018-01-02T03:33:48.322Z,99527.01
2018-01-02T03:36:15.723Z,99530.74
2018-01-02T03:38:43.145Z,99531.09
2018-01-02T03:41:10.546Z,99531.41
2018-01-02T03:43:37.942Z,99529.09
2018-01-02T03:46:05.384Z,99528.19
2018-01-02T03:48:32.778Z,99526.61
2018-01-02T03:51:00.183Z,99524.45
2018-01-02T03:53:27.622Z,99528.27
2018-01-02T03:55:55.087Z,99521.42
2018-01-02T03:58:22.543Z,99525.53
2018-01-02T04:00:49.972Z,99526.23
2018-01-02T04:03:17.375Z,99522.20
2018-01-02T04:05:44.777Z,99528.91
2018-01-02T04:08:12.199Z,99533.02
2018-01-02T04:10:39.590Z,99539.40
2018-01-02T04:13:07.027Z,99540.24
2018-01-02T04:15:34.422Z,99539.59
2018-01-02T04:18:01.887Z,99533.10
2018-01-02T04:20:29.302Z,99541.95
2018-01-02T04:22:56.702Z,99539.11
2018-01-02T04:25:24.122Z,99536.11
2018-01-02T04:27:51.519Z,99531.03
2018-01-02T04:30:18.953Z,99536.97
2018-01-02T04:32:46.355Z,99536.77
2018-01-02T04:35:13.751Z,99535.51
2018-01-02T04:37:41.187Z,99528.04
2018-01-02T04:40:08.698Z,99532.91
2018-01-02T04:42:36.091Z,99533.20
2018-01-02T04:45:03.511Z,99539.05
2018-01-02T04:47:30.919Z,99541.41
2018-01-02T04:49:58.347Z,99545.60
2018-01-02T04:52:25.752Z,99544.01
2018-01-02T04:54:53.147Z,99540.36
2018-01-02T04:57:20.576Z,99541.70
2018-01-02T04:59:48.042Z,99546.33
2018-01-02T05:02:15.499Z,99546.94
2018-01-02T05:04:42.925Z,99552.83
2018-01-02T05:07:10.323Z,99550.64
2018-01-02T05:09:37.730Z,99549.83
2018-01-02T05:12:05.150Z,99550.67
2018-01-02T05:14:32.583Z,99553.36
2018-01-02T05:17:00.035Z,99560.38
2018-01-02T05:19:27.471Z,99561.07
2018-01-02T05:21:54.868Z,99565.24
2018-01-02T05:24:22.268Z,99569.06
2018-01-02T05:26:49.726Z,99563.29
2018-01-02T05:29:17.134Z,99574.02
2018-01-02T05:31:44.542Z,99565.48
2018-01-02T05:34:12.030Z,99573.08
2018-01-02T05:36:39.481Z,99580.48
2018-01-02T05:39:06.876Z,99586.90
2018-01-02T05:41:34.405Z,99588.03
2018-01-02T05:44:01.808Z,99594.45
2018-01-02T05:46:29.229Z,99600.62
2018-01-02T05:48:56.630Z,99607.13
2018-01-02T05:51:24.034Z,99617.30
2018-01-02T05:53:51.483Z,99609.34
2018-01-02T05:56:18.939Z,99617.18
2018-01-02T05:58:46.343Z,99613.53
2018-01-02T06:01:13.759Z,99619.11
2018-01-02T06:03:41.168Z,99625.81
2018-01-02T06:06:08.571Z,99627.64
2018-01-02T06:08:36.007Z,99641.67
2018-01-02T06:11:03.409Z,99644.84
2018-01-02T06:13:30.818Z,99645.89
2018-01-02T06:15:58.234Z,99648.05
2018-01-02T06:18:25.655Z,99657.77
2018-01-02T06:20:53.086Z,99664.41
2018-01-02T06:23:20.490Z,99672.75
2018-01-02T06:25:47.908Z,99679.54
2018-01-02T06:28:15.368Z,99687.47
2018-01-02T06:30:42.791Z,99690.77
2018-01-02T06:33:10.283Z,99696.66
2018-01-02T06:35:37.706Z,99707.69
2018-01-02T06:38:05.203Z,99710.45
2018-01-02T06:40:32.610Z,99713.63
2018-01-02T06:43:00.021Z,99715.59
2018-01-02T06:45:27.458Z,99719.34
2018-01-02T06:47:54.873Z,99732.55
2018-01-02T06:50:22.276Z,99735.34
2018-01-02T06:52:49.713Z,99741.84
2018-01-02T06:55:17.119Z,99750.02
2018-01-02T06:57:44.514Z,99759.59
2018-01-02T07:00:12.003Z,99764.48
2018-01-02T07:02:39.409Z,99777.73
2018-01-02T07:05:06.827Z,99780.32
2018-01-02T07:07:34.254Z,99788.50
2018-01-02T07:10:01.658Z,99798.42
2018-01-02T07:12:29.103Z,99801.41
2018-01-02T07:14:56.525Z,99803.63
2018-01-02T07:17:24.024Z,99812.52
2018-01-02T07:19:51.470Z,99823.67
2018-01-02T07:22:18.904Z,99829.95
2018-01-02T07:24:46.299Z,99837.59
2018-01-02T07:27:13.727Z,99848.63
2018-01-02T07:29:41.205Z,99845.84
2018-01-02T07:32:08.602Z,99853.88
2018-01-02T07:34:36.026Z,99858.11
2018-01-02T07:37:03.440Z,99869.87
2018-01-02T07:39:30.834Z,99865.44
2018-01-02T07:41:58.242Z,99877.82
2018-01-02T07:44:25.662Z,99876.49
2018-01-02T07:46:53.066Z,99882.36
2018-01-02T07:49:20.463Z,99882.98
2018-01-02T07:51:47.886Z,99891.03
2018-01-02T07:54:15.332Z,99898.78
2018-01-02T07:56:42.722Z,99907.65
2018-01-02T07:59:10.135Z,99913.30
2018-01-02T08:01:37.565Z,99909.58
2018-01-02T08:04:04.966Z,99918.86
2018-01-02T08:06:32.367Z,99926.49
2018-01-02T08:08:59.874Z,99934.74
2018-01-02T08:11:27.314Z,99932.58
2018-01-02T08:13:54.799Z,99932.56
2018-01-02T08:16:22.204Z,99951.58
2018-01-02T08:18:49.711Z,99945.06
2018-01-02T08:21:17.155Z,99948.38
2018-01-02T08:23:44.627Z,99959.02
2018-01-02T08:26:12.052Z,99959.11
2018-01-02T08:28:39.526Z,99966.92
2018-01-02T08:31:06.912Z,99964.44
2018-01-02T08:33:34.439Z,99965.07
2018-01-02T08:36:01.828Z,99973.52
2018-01-02T08:38:29.236Z,99986.73
2018-01-02T08:40:56.654Z,99993.13
2018-01-02T08:43:24.160Z,99994.16
2018-01-02T08:45:51.564Z,100008.41
2018-01-02T08:48:18.979Z,100015.53
2018-01-02T08:50:46.390Z,100027.61
2018-01-02T08:53:13.818Z,100023.60
2018-01-02T08:55:41.228Z,100031.73
2018-01-02T08:58:08.625Z,100049.08
2018-01-02T09:00:36.069Z,100047.42
2018-01-02T09:03:03.522Z,100052.98
2018-01-02T09:05:30.982Z,100058.27
2018-01-02T09:07:58.448Z,100061.66
2018-01-02T09:10:25.850Z,100062.81
2018-01-02T09:12:53.256Z,100072.09
2018-01-02T09:15:20.675Z,100073.83
2018-01-02T09:17:48.258Z,100082.61
2018-01-02T09:20:15.650Z,100084.48
2018-01-02T09:22:43.115Z,100089.52
2018-01-02T09:25:10.522Z,100093.78
2018-01-02T09:27:37.920Z,100092.92
2018-01-02T09:30:05.359Z,100100.88
2018-01-02T09:32:32.774Z,100102.73
2018-01-02T09:35:00.170Z,100109.04
2018-01-02T09:37:27.614Z,100109.05
2018-01-02T09:39:55.007Z,100107.58
2018-01-02T09:42:22.417Z,100107.48
2018-01-02T09:44:49.867Z,100111.65
2018-01-02T09:47:17.275Z,100119.70
2018-01-02T09:49:44.728Z,100122.06
2018-01-02T09:52:12.185Z,100125.18
2018-01-02T09:54:39.581Z,100128.36
2018-01-02T09:57:07.040Z,100127.75
2018-01-02T09:59:34.479Z,100133.01
2018-01-02T10:02:01.905Z,100133.44
2018-01-02T10:04:29.330Z,100136.13
2018-01-02T10:06:56.775Z,100140.97
2018-01-02T10:09:24.195Z,100146.78
2018-01-02T10:11:51.620Z,100148.20
2018-01-02T10:14:19.053Z,100153.59
2018-01-02T10:16:46.475Z,100148.72
2018-01-02T10:19:13.903Z,100154.00
2018-01-02T10:21:41.335Z,100155.34
2018-01-02T10:24:08.761Z,100156.14
2018-01-02T10:26:36.217Z,100158.63
2018-01-02T10:29:03.673Z,100162.33
2018-01-02T10:31:31.089Z,100167.20
2018-01-02T10:33:58.508Z,100166.81
2018-01-02T10:36:25.944Z,100172.07
2018-01-02T10:38:53.369Z,100169.05
2018-01-02T10:41:20.795Z,100168.84
2018-01-02T10:43:48.239Z,100170.38
2018-01-02T10:46:15.673Z,100176.55
2018-01-02T10:48:43.119Z,100178.20
2018-01-02T10:51:10.561Z,100176.23
2018-01-02T10:53:38.075Z,100184.30
2018-01-02T10:56:05.535Z,100182.88
2018-01-02T10:58:32.953Z,100189.92
2018-01-02T11:01:01.267Z,100189.92
2018-01-02T11:03:28.774Z,100203.58
2018-01-02T11:05:56.283Z,100207.41
2018-01-02T11:08:23.698Z,100213.39
2018-01-02T11:13:58.047Z,100206.78
2018-01-02T11:16:25.485Z,100211.13
2018-01-02T11:18:52.902Z,100210.52
2018-01-02T11:21:20.330Z,100211.01
2018-01-02T11:23:47.786Z,100207.92
2018-01-02T11:26:15.187Z,100219.70
2018-01-02T11:28:42.610Z,100222.40
2018-01-02T11:31:10.079Z,100222.50
2018-01-02T11:33:37.500Z,100216.50
2018-01-02T11:36:04.906Z,100229.31
2018-01-02T11:38:32.336Z,100228.80
2018-01-02T11:40:59.775Z,100222.07
2018-01-02T11:43:27.191Z,100223.27
2018-01-02T11:45:54.711Z,100227.72
2018-01-02T11:48:22.163Z,100227.67
2018-01-02T11:50:49.574Z,100228.21
2018-01-02T11:53:17.064Z,100229.18
2018-01-02T11:55:44.462Z,100236.94
2018-01-02T11:58:11.871Z,100237.25
2018-01-02T12:00:39.295Z,100239.13
2018-01-02T12:03:06.714Z,100243.17
2018-01-02T12:05:34.159Z,100243.25
2018-01-02T12:08:01.575Z,100239.12
2018-01-02T12:10:28.987Z,100241.83
2018-01-02T12:12:56.420Z,100246.04
2018-01-02T12:15:23.824Z,100244.08
2018-01-02T12:17:51.259Z,100246.05
2018-01-02T12:20:18.684Z,100244.37
2018-01-02T12:22:46.088Z,100248.41
2018-01-02T12:25:13.607Z,100247.59
2018-01-02T12:27:41.026Z,100253.59
2018-01-02T12:30:08.437Z,100260.06
2018-01-02T12:32:35.931Z,100265.86
2018-01-02T12:35:03.301Z,100264.41
2018-01-02T12:37:30.715Z,100261.73
2018-01-02T12:39:58.200Z,100264.41
2018-01-02T12:42:25.593Z,100267.50
2018-01-02T12:44:53.011Z,100269.49
2018-01-02T12:47:20.415Z,100276.29
2018-01-02T12:49:47.980Z,100281.32
2018-01-02T12:52:15.395Z,100274.55
2018-01-02T12:54:42.813Z,100280.98
2018-01-02T12:57:10.252Z,100291.35
2018-01-02T12:59:37.668Z,100291.37
2018-01-02T13:02:05.164Z,100295.41
2018-01-02T13:04:33.758Z,100291.50
2018-01-02T13:07:01.183Z,100302.35
2018-01-02T13:09:28.658Z,100302.67
2018-01-02T13:11:56.196Z,100312.09
2018-01-02T13:14:23.677Z,100316.05
2018-01-02T13:16:51.091Z,100312.41
2018-01-02T13:19:18.516Z,100320.80
2018-01-02T13:21:45.919Z,100316.84
2018-01-02T13:24:13.399Z,100325.15
2018-01-02T13:26:40.851Z,100325.56
2018-01-02T13:29:08.290Z,100321.41
2018-01-02T13:31:35.690Z,100332.18
2018-01-02T13:34:03.145Z,100333.84
2018-01-02T13:36:30.560Z,100337.70
2018-01-02T13:38:58.033Z,100344.29
2018-01-02T13:41:25.479Z,100341.39
2018-01-02T13:43:52.890Z,100345.21
2018-01-02T13:46:20.303Z,100341.59
2018-01-02T13:48:47.759Z,100346.34
2018-01-02T13:51:15.163Z,100352.34
2018-01-02T13:53:42.580Z,100354.09
2018-01-02T13:56:10.035Z,100353.45
2018-01-02T13:58:37.490Z,100358.23
2018-01-02T14:01:04.871Z,100365.78
2018-01-02T14:03:32.299Z,100361.95
2018-01-02T14:05:59.760Z,100364.86
2018-01-02T14:08:27.182Z,100365.98
2018-01-02T14:10:54.604Z,100371.28
2018-01-02T14:13:22.022Z,100374.46
2018-01-02T14:15:49.491Z,100380.47
2018-01-02T14:18:16.903Z,100379.23
2018-01-02T14:20:44.310Z,100376.74
2018-01-02T14:23:11.763Z,100386.17
2018-01-02T14:25:39.215Z,100385.86
2018-01-02T14:28:06.667Z,100385.56
2018-01-02T14:30:34.127Z,100380.89
2018-01-02T14:33:01.540Z,100387.30
2018-01-02T14:35:29.038Z,100394.23
2018-01-02T14:37:56.462Z,100388.26
2018-01-02T14:40:23.926Z,100392.92
2018-01-02T14:42:51.402Z,100393.06
2018-01-02T14:45:18.808Z,100398.02
2018-01-02T14:47:46.228Z,100406.71
2018-01-02T14:50:13.651Z,100408.47
2018-01-02T14:52:41.067Z,100413.24
2018-01-02T14:55:08.476Z,100416.75
2018-01-02T14:57:35.917Z,100421.53
2018-01-02T15:00:03.403Z,100422.86
2018-01-02T15:02:30.838Z,100424.83
2018-01-02T15:04:58.265Z,100421.92
2018-01-02T15:07:25.680Z,100427.95
2018-01-02T15:09:53.081Z,100435.61
2018-01-02T15:12:20.590Z,100433.83
2018-01-02T15:14:48.004Z,100439.34
2018-01-02T15:17:15.420Z,100441.81
2018-01-02T15:19:42.847Z,100441.59
2018-01-02T15:22:10.293Z,100440.36
2018-01-02T15:24:37.708Z,100444.77
2018-01-02T15:27:05.148Z,100444.25
2018-01-02T15:29:32.611Z,100447.86
2018-01-02T15:32:00.030Z,100448.14
2018-01-02T15:34:27.454Z,100454.77
2018-01-02T15:36:54.905Z,100456.00
2018-01-02T15:39:22.350Z,100455.81
2018-01-02T15:41:49.775Z,100459.54
2018-01-02T15:44:17.317Z,100458.69
2018-01-02T15:46:44.723Z,100454.14
2018-01-02T15:49:12.148Z,100458.75
2018-01-02T15:51:39.621Z,100463.28
2018-01-02T15:54:07.030Z,100465.56
2018-01-02T15:56:34.464Z,100473.92
2018-01-02T15:59:01.874Z,100467.81
2018-01-02T16:01:29.287Z,100470.20
2018-01-02T16:03:56.714Z,100474.55
2018-01-02T16:06:24.134Z,100471.16
2018-01-02T16:08:51.547Z,100473.73
2018-01-02T16:11:19.015Z,100476.39
2018-01-02T16:13:46.507Z,100482.18
2018-01-02T16:16:13.966Z,100489.86
2018-01-02T16:18:41.388Z,100484.16
2018-01-02T16:21:08.988Z,100480.76
2018-01-02T16:23:36.438Z,100484.34
2018-01-02T16:26:03.850Z,100488.70
2018-01-02T16:28:31.283Z,100485.80
2018-01-02T16:30:58.706Z,100489.31
2018-01-02T16:33:26.122Z,100479.94
2018-01-02T16:35:53.577Z,100478.17
2018-01-02T16:38:21.076Z,100479.08
2018-01-02T16:40:48.528Z,100478.55
2018-01-02T16:43:15.999Z,100475.13
2018-01-02T16:45:43.448Z,100476.58
2018-01-02T16:48:10.888Z,100468.73
2018-01-02T16:50:38.333Z,100472.11
2018-01-02T16:53:05.746Z,100472.30
2018-01-02T16:55:33.157Z,100479.64
2018-01-02T16:58:00.575Z,100479.23
2018-01-02T17:00:28.077Z,100475.13
2018-01-02T17:02:55.484Z,100473.78
2018-01-02T17:05:22.918Z,100475.31
2018-01-02T17:07:50.324Z,100473.38
2018-01-02T17:10:17.811Z,100474.41
2018-01-02T17:12:45.271Z,100478.55
2018-01-02T17:15:12.685Z,100471.20
2018-01-02T17:17:40.188Z,100475.46
2018-01-02T17:20:07.624Z,100482.92
2018-01-02T17:22:35.043Z,100483.94
2018-01-02T17:25:02.455Z,100484.67
2018-01-02T17:27:29.886Z,100481.05
2018-01-02T17:29:57.402Z,100480.53
2018-01-02T17:32:24.789Z,100482.81
2018-01-02T17:34:52.236Z,100476.94
2018-01-02T17:37:19.646Z,100482.43
2018-01-02T17:39:47.054Z,100480.67
2018-01-02T17:42:14.545Z,100475.71
2018-01-02T17:44:41.939Z,100479.85
2018-01-02T17:47:09.348Z,100478.62
2018-01-02T17:49:36.772Z,100481.94
2018-01-02T17:52:04.275Z,100476.37
2018-01-02T17:54:31.738Z,100482.76
2018-01-02T17:56:59.147Z,100486.80
2018-01-02T17:59:26.572Z,100487.83
2018-01-02T18:01:54.008Z,100491.05
2018-01-02T18:04:21.414Z,100484.89
2018-01-02T18:06:48.824Z,100486.62
2018-01-02T18:09:16.274Z,100484.45
2018-01-02T18:11:43.688Z,100490.63
2018-01-02T18:14:11.091Z,100485.06
2018-01-02T18:16:38.510Z,100495.19
2018-01-02T18:19:05.925Z,100483.83
2018-01-02T18:21:33.386Z,100482.70
2018-01-02T18:24:00.799Z,100482.18
2018-01-02T18:26:28.272Z,100490.96
2018-01-02T18:28:55.814Z,100489.29
2018-01-02T18:31:23.287Z,100489.29
2018-01-02T18:33:50.749Z,100490.22
2018-01-02T18:36:18.187Z,100490.94
2018-01-02T18:38:45.606Z,100488.66
2018-01-02T18:41:13.091Z,100487.83
2018-01-02T18:43:40.567Z,100489.18
2018-01-02T18:46:07.990Z,100490.30
2018-01-02T18:48:35.404Z,100489.48
2018-01-02T18:51:02.855Z,100488.84
2018-01-02T18:53:30.263Z,100475.81
2018-01-02T18:55:57.719Z,100489.78
2018-01-02T18:58:25.167Z,100485.15
2018-01-02T19:00:52.669Z,100490.41
2018-01-02T19:03:20.142Z,100489.59
2018-01-02T19:05:47.569Z,100484.55
2018-01-02T19:08:15.004Z,100485.66
2018-01-02T19:10:42.535Z,100483.61
2018-01-02T19:13:09.958Z,100483.39
2018-01-02T19:15:37.472Z,100495.48
2018-01-02T19:18:05.106Z,100487.13
2018-01-02T19:20:32.675Z,100478.64
2018-01-02T19:23:00.098Z,100480.81
2018-01-02T19:25:27.535Z,100485.36
2018-01-02T19:27:54.986Z,100484.02
2018-01-02T19:30:22.570Z,100484.84
2018-01-02T19:32:50.097Z,100485.03
2018-01-02T19:35:17.533Z,100481.53
2018-01-02T19:37:44.941Z,100478.73
2018-01-02T19:40:12.351Z,100484.00
2018-01-02T19:42:39.790Z,100483.47
2018-01-02T19:45:07.199Z,100478.59
2018-01-02T19:47:34.606Z,100474.66
2018-01-02T19:50:02.056Z,100470.36
2018-01-02T19:52:29.516Z,100473.77
2018-01-02T19:54:57.122Z,100467.86
2018-01-02T19:57:24.551Z,100469.20
2018-01-02T19:59:51.962Z,100464.34
2018-01-02T20:02:19.382Z,100460.84
2018-01-02T20:04:46.798Z,100452.77
2018-01-02T20:07:14.218Z,100453.30
2018-01-02T20:09:41.623Z,100451.33
2018-01-02T20:12:09.066Z,100447.59
2018-01-02T20:14:36.485Z,100441.36
2018-01-02T20:17:03.894Z,100442.71
2018-01-02T20:19:31.346Z,100444.58
2018-01-02T20:21:58.790Z,100441.15
2018-01-02T20:24:26.199Z,100447.54
2018-01-02T20:26:53.651Z,100449.30
2018-01-02T20:29:21.088Z,100448.44
2018-01-02T20:31:48.555Z,100449.56
2018-01-02T20:34:15.959Z,100442.88
2018-01-02T20:36:43.413Z,100451.02
2018-01-02T20:39:10.815Z,100431.91
2018-01-02T20:41:38.227Z,100431.16
2018-01-02T20:44:05.650Z,100429.27
2018-01-02T20:46:33.059Z,100432.89
2018-01-02T20:49:00.482Z,100438.75
2018-01-02T20:51:27.915Z,100437.59
2018-01-02T20:53:55.383Z,100437.77
2018-01-02T20:56:22.823Z,100436.62
2018-01-02T20:58:50.238Z,100437.84
2018-01-02T21:01:17.679Z,100434.41
2018-01-02T21:03:45.144Z,100439.37
2018-01-02T21:06:12.560Z,100441.41
2018-01-02T21:08:40.068Z,100444.77
2018-01-02T21:11:07.514Z,100438.86
2018-01-02T21:13:34.923Z,100437.58
2018-01-02T21:16:02.335Z,100427.32
2018-01-02T21:18:29.772Z,100422.35
2018-01-02T21:20:57.243Z,100432.53
2018-01-02T21:23:24.664Z,100432.40
2018-01-02T21:25:52.103Z,100432.17
2018-01-02T21:28:19.604Z,100425.04
2018-01-02T21:30:47.017Z,100417.53
2018-01-02T21:33:14.465Z,100412.67
2018-01-02T21:35:41.975Z,100415.84
2018-01-02T21:38:09.383Z,100403.92
2018-01-02T21:40:36.814Z,100395.05
2018-01-02T21:43:04.232Z,100387.38
2018-01-02T21:45:31.643Z,100386.89
2018-01-02T21:47:59.173Z,100374.71
2018-01-02T21:50:26.594Z,100373.59
2018-01-02T21:52:54.003Z,100381.53
2018-01-02T21:55:21.538Z,100374.19
2018-01-02T21:57:48.953Z,100377.51
2018-01-02T22:00:16.364Z,100372.37
2018-01-02T22:02:43.812Z,100365.36
2018-01-02T22:05:11.228Z,100364.09
2018-01-02T22:07:38.635Z,100360.36
2018-01-02T22:10:06.095Z,100354.06
2018-01-02T22:12:33.524Z,100350.66
2018-01-02T22:15:00.943Z,100349.40
2018-01-02T22:17:28.451Z,100350.84
2018-01-02T22:19:55.868Z,100343.62
2018-01-02T22:22:23.276Z,100338.03
2018-01-02T22:24:50.710Z,100332.02
2018-01-02T22:27:18.184Z,100330.03
2018-01-02T22:29:45.622Z,100332.14
2018-01-02T22:32:13.150Z,100329.81
2018-01-02T22:34:40.657Z,100323.46
2018-01-02T22:37:08.068Z,100315.06
2018-01-02T22:39:35.573Z,100304.28
2018-01-02T22:42:02.975Z,100304.23
2018-01-02T22:44:30.489Z,100306.14
2018-01-02T22:46:57.965Z,100299.09
2018-01-02T22:49:25.408Z,100295.65
2018-01-02T22:51:52.856Z,100282.47
2018-01-02T22:54:20.262Z,100278.69
2018-01-02T22:56:47.786Z,100273.09
2018-01-02T22:59:15.212Z,100256.17
2018-01-02T23:01:42.623Z,100257.47
2018-01-02T23:04:10.239Z,100247.85
2018-01-02T23:06:37.711Z,100248.96
2018-01-02T23:09:05.123Z,100250.13
2018-01-02T23:11:32.552Z,100255.41
2018-01-02T23:13:59.989Z,100244.87
2018-01-02T23:16:27.395Z,100244.29
2018-01-02T23:18:54.985Z,100239.11
2018-01-02T23:21:22.440Z,100227.52
2018-01-02T23:23:49.906Z,100227.09
2018-01-02T23:26:17.339Z,100223.25
2018-01-02T23:28:44.787Z,100213.34
2018-01-02T23:31:12.210Z,100210.49
2018-01-02T23:33:39.658Z,100210.14
2018-01-02T23:36:07.084Z,100198.66
2018-01-02T23:38:34.516Z,100205.36
2018-01-02T23:41:01.956Z,100192.42
2018-01-02T23:43:29.375Z,100178.69
2018-01-02T23:45:56.804Z,100170.25
2018-01-02T23:48:24.264Z,100167.34
2018-01-02T23:50:51.684Z,100160.74
2018-01-02T23:53:19.107Z,100150.73
2018-01-02T23:55:46.560Z,100147.70
2018-01-02T23:58:13.982Z,100137.02
